Time;durP1;ratioP1;P1;durP2;ratioP2;P2;SDS_P1;SDS_P2;PMS_P1;PMS_P2;Temp;Humidity;BMP_temperature;BMP_pressure;BME280_temperature;BME280_humidity;BME280_pressure;Samples;Min_cycle;Max_cycle;Signal;HPM_P1;HPM_P2
2023/01/15 00:02:16;;;;;;;38.40;20.48;;;;;;;;;;5094021;28;20475;-79
2023/01/15 00:05:02;;;;;;;37.08;20.05;;;;;;;;;;5097946;28;20031;-78
2023/01/15 00:07:48;;;;;;;36.65;20.80;;;;;;;;;;5095533;28;20028;-78
2023/01/15 00:10:34;;;;;;;38.40;21.25;;;;;;;;;;5101691;28;20028;-78
2023/01/15 00:13:20;;;;;;;36.58;21.85;;;;;;;;;;5117369;28;20026;-77
2023/01/15 00:16:15;;;;;;;38.42;22.13;;;;;;;;;;5116972;28;20436;-78
2023/01/15 00:19:03;;;;;;;36.83;21.23;;;;;;;;;;5117335;28;20024;-78
2023/01/15 00:21:48;;;;;;;36.88;21.98;;;;;;;;;;5117163;28;20047;-78
2023/01/15 00:27:38;;;;;;;34.40;19.40;;;;;;;;;;5117172;28;20054;-77
2023/01/15 00:30:24;;;;;;;32.22;17.40;;;;;;;;;;5102452;28;20028;-78
2023/01/15 00:33:09;;;;;;;33.60;18.50;;;;;;;;;;5102812;28;20012;-77
2023/01/15 00:35:56;;;;;;;33.45;18.13;;;;;;;;;;5116398;28;20055;-77
2023/01/15 00:38:41;;;;;;;32.67;18.15;;;;;;;;;;5118068;28;20111;-78
2023/01/15 00:41:27;;;;;;;36.42;19.17;;;;;;;;;;5102827;28;20026;-77
2023/01/15 00:44:12;;;;;;;37.10;19.63;;;;;;;;;;5116624;28;20023;-78
2023/01/15 00:46:58;;;;;;;36.47;21.08;;;;;;;;;;5117127;28;20123;-77
2023/01/15 00:49:44;;;;;;;44.40;25.98;;;;;;;;;;5116874;28;20019;-77
2023/01/15 00:52:29;;;;;;;60.65;33.47;;;;;;;;;;5101709;28;20095;-79
2023/01/15 00:55:15;;;;;;;55.85;31.98;;;;;;;;;;5118183;28;20034;-77
2023/01/15 00:58:01;;;;;;;53.00;29.38;;;;;;;;;;5119089;28;20030;-78
2023/01/15 01:00:51;;;;;;;44.33;24.20;;;;;;;;;;5102033;28;20180;-77
2023/01/15 01:03:39;;;;;;;47.05;24.25;;;;;;;;;;5116619;28;20035;-77
2023/01/15 01:06:25;;;;;;;41.35;22.70;;;;;;;;;;5117078;28;20047;-77
2023/01/15 01:09:14;;;;;;;33.65;19.33;;;;;;;;;;5116136;28;20153;-77
2023/01/15 01:12:00;;;;;;;37.60;20.40;;;;;;;;;;5115474;28;20364;-82
2023/01/15 01:14:45;;;;;;;52.05;28.80;;;;;;;;;;5101044;28;20432;-79
2023/01/15 01:17:31;;;;;;;49.05;26.10;;;;;;;;;;5117564;28;20072;-79
2023/01/15 01:20:17;;;;;;;50.08;27.65;;;;;;;;;;5116542;28;20016;-78
2023/01/15 01:23:03;;;;;;;48.70;26.00;;;;;;;;;;5115469;28;20486;-79
2023/01/15 01:25:48;;;;;;;44.55;23.60;;;;;;;;;;5116559;28;20500;-77
2023/01/15 01:28:34;;;;;;;41.30;22.17;;;;;;;;;;5115792;28;20019;-80
2023/01/15 01:31:20;;;;;;;41.70;21.85;;;;;;;;;;5116668;28;20024;-77
2023/01/15 01:34:06;;;;;;;41.38;21.27;;;;;;;;;;5116173;28;20022;-79
2023/01/15 01:36:51;;;;;;;39.45;21.15;;;;;;;;;;5115063;28;20031;-78
2023/01/15 01:39:37;;;;;;;39.72;21.10;;;;;;;;;;5115415;28;20031;-79
2023/01/15 01:42:23;;;;;;;36.13;20.90;;;;;;;;;;5116195;28;20023;-79
2023/01/15 01:45:16;;;;;;;41.35;23.25;;;;;;;;;;5115253;28;20051;-79
2023/01/15 01:48:03;;;;;;;45.05;26.15;;;;;;;;;;5099750;28;20043;-79
2023/01/15 01:50:49;;;;;;;55.33;30.67;;;;;;;;;;5115353;28;20011;-79
2023/01/15 01:53:35;;;;;;;53.35;30.90;;;;;;;;;;5115603;28;20020;-79
2023/01/15 01:56:22;;;;;;;52.75;30.38;;;;;;;;;;5115866;28;20032;-78
2023/01/15 01:59:07;;;;;;;51.10;28.65;;;;;;;;;;5101653;28;20031;-78
2023/01/15 02:01:53;;;;;;;51.90;30.05;;;;;;;;;;5116715;28;20043;-78
2023/01/15 02:04:39;;;;;;;59.58;35.20;;;;;;;;;;5117079;28;20029;-78
2023/01/15 02:07:25;;;;;;;58.13;32.83;;;;;;;;;;5115967;28;20036;-79
2023/01/15 02:10:15;;;;;;;48.20;27.08;;;;;;;;;;5114431;28;20024;-78
2023/01/15 02:13:09;;;;;;;37.22;20.92;;;;;;;;;;5116851;28;20459;-79
2023/01/15 02:16:18;;;;;;;34.78;19.67;;;;;;;;;;5116086;28;20049;-79
2023/01/15 02:19:03;;;;;;;30.45;17.95;;;;;;;;;;5074311;28;20352;-78
2023/01/15 02:22:02;;;;;;;31.27;18.23;;;;;;;;;;5115227;28;20031;-79
2023/01/15 02:24:50;;;;;;;40.60;23.58;;;;;;;;;;5114937;28;20015;-78
2023/01/15 02:27:37;;;;;;;36.53;21.02;;;;;;;;;;5115899;28;20057;-77
2023/01/15 02:30:31;;;;;;;39.25;20.50;;;;;;;;;;5115171;28;20035;-78
2023/01/15 02:33:20;;;;;;;34.42;19.65;;;;;;;;;;5114321;28;20019;-78
2023/01/15 02:36:07;;;;;;;30.13;17.58;;;;;;;;;;5100164;28;20020;-78
2023/01/15 02:38:55;;;;;;;29.02;17.30;;;;;;;;;;5100030;28;20027;-78
2023/01/15 02:41:44;;;;;;;30.48;16.88;;;;;;;;;;5100660;28;20024;-78
2023/01/15 02:44:30;;;;;;;28.17;16.23;;;;;;;;;;5115712;28;20428;-79
2023/01/15 02:47:18;;;;;;;28.83;16.25;;;;;;;;;;5114035;28;20054;-79
2023/01/15 02:50:06;;;;;;;25.77;14.93;;;;;;;;;;5099936;28;20023;-78
2023/01/15 02:52:54;;;;;;;27.98;15.75;;;;;;;;;;5113892;28;20095;-78
2023/01/15 02:55:46;;;;;;;28.80;14.90;;;;;;;;;;5114430;28;20019;-78
2023/01/15 02:58:33;;;;;;;26.45;14.98;;;;;;;;;;5100821;28;20026;-78
2023/01/15 03:01:22;;;;;;;23.70;14.63;;;;;;;;;;5103595;28;20112;-78
2023/01/15 03:04:08;;;;;;;24.13;14.18;;;;;;;;;;5103454;28;20019;-78
2023/01/15 03:06:58;;;;;;;24.08;13.88;;;;;;;;;;5119275;28;20046;-79
2023/01/15 03:09:44;;;;;;;27.17;15.50;;;;;;;;;;5119544;28;20485;-79
2023/01/15 03:13:01;;;;;;;24.27;14.07;;;;;;;;;;5103577;28;20030;-77
2023/01/15 03:19:00;;;;;;;25.30;14.50;;;;;;;;;;5118390;28;20019;-78
2023/01/15 03:21:45;;;;;;;25.17;14.65;;;;;;;;;;5118795;28;20332;-79
2023/01/15 03:24:45;;;;;;;24.95;14.45;;;;;;;;;;5103267;28;20016;-78
2023/01/15 03:27:31;;;;;;;25.23;14.40;;;;;;;;;;5103904;28;20028;-78
2023/01/15 03:30:19;;;;;;;26.95;15.00;;;;;;;;;;5104387;28;20447;-77
2023/01/15 03:33:05;;;;;;;27.15;15.23;;;;;;;;;;5102529;28;20041;-78
2023/01/15 03:35:52;;;;;;;26.35;14.45;;;;;;;;;;5102770;28;20016;-78
2023/01/15 03:38:38;;;;;;;26.15;14.32;;;;;;;;;;5118039;28;20034;-78
2023/01/15 03:41:43;;;;;;;25.70;14.93;;;;;;;;;;5117739;28;20028;-79
2023/01/15 03:44:47;;;;;;;27.92;14.93;;;;;;;;;;5117471;28;20019;-79
2023/01/15 03:47:55;;;;;;;28.17;15.05;;;;;;;;;;5118229;28;20043;-78
2023/01/15 03:50:44;;;;;;;26.48;14.77;;;;;;;;;;5102232;28;20050;-78
2023/01/15 03:53:38;;;;;;;25.55;15.10;;;;;;;;;;5117675;28;20447;-78
2023/01/15 03:56:35;;;;;;;27.13;15.02;;;;;;;;;;5102929;28;20111;-78
2023/01/15 03:59:22;;;;;;;26.77;15.57;;;;;;;;;;5102571;28;20023;-78
2023/01/15 04:02:10;;;;;;;26.33;14.63;;;;;;;;;;5102653;28;20372;-77
2023/01/15 04:04:57;;;;;;;27.77;15.55;;;;;;;;;;5117964;28;20028;-79
2023/01/15 04:07:44;;;;;;;28.58;15.75;;;;;;;;;;5103458;28;20439;-78
2023/01/15 04:10:30;;;;;;;26.02;14.90;;;;;;;;;;5117338;28;20451;-78
2023/01/15 04:13:16;;;;;;;29.58;14.45;;;;;;;;;;5117156;28;20096;-77
2023/01/15 04:16:01;;;;;;;28.08;15.45;;;;;;;;;;5103119;28;20047;-78
2023/01/15 04:18:47;;;;;;;25.77;14.02;;;;;;;;;;5117296;28;20026;-78
2023/01/15 04:21:32;;;;;;;27.15;14.30;;;;;;;;;;5102079;28;20024;-78
2023/01/15 04:24:18;;;;;;;25.17;14.63;;;;;;;;;;5116275;28;20396;-77
2023/01/15 04:27:03;;;;;;;26.13;14.55;;;;;;;;;;5103438;28;20032;-78
2023/01/15 04:29:49;;;;;;;28.13;15.27;;;;;;;;;;5102613;28;20024;-78
2023/01/15 04:32:34;;;;;;;26.02;15.20;;;;;;;;;;5101894;28;20076;-78
2023/01/15 04:35:20;;;;;;;29.80;16.02;;;;;;;;;;5116940;28;20012;-78
2023/01/15 04:38:06;;;;;;;28.00;16.05;;;;;;;;;;5116970;28;20007;-77
2023/01/15 04:44:08;;;;;;;30.35;16.73;;;;;;;;;;5129244;28;20086;-79
2023/01/15 04:46:53;;;;;;;31.02;16.65;;;;;;;;;;5129365;28;20313;-79
2023/01/15 04:49:39;;;;;;;26.15;15.32;;;;;;;;;;5121735;28;20020;-79
2023/01/15 04:52:25;;;;;;;27.83;15.63;;;;;;;;;;5104547;28;20019;-78
2023/01/15 04:55:10;;;;;;;28.92;16.08;;;;;;;;;;5124207;28;20035;-79
2023/01/15 04:57:56;;;;;;;28.15;16.42;;;;;;;;;;5116503;28;20409;-78
2023/01/15 05:00:41;;;;;;;28.85;15.70;;;;;;;;;;5102328;28;20047;-79
2023/01/15 05:03:28;;;;;;;30.20;15.98;;;;;;;;;;5116564;28;20028;-78
2023/01/15 05:06:14;;;;;;;31.55;17.67;;;;;;;;;;5116705;28;20378;-79
2023/01/15 05:09:00;;;;;;;26.17;15.40;;;;;;;;;;5100847;28;20104;-77
2023/01/15 05:11:45;;;;;;;35.20;19.83;;;;;;;;;;5116870;28;20070;-78
2023/01/15 05:14:31;;;;;;;55.83;31.02;;;;;;;;;;5132548;28;20043;-79
2023/01/15 05:17:16;;;;;;;39.60;23.35;;;;;;;;;;5126709;28;20088;-77
2023/01/15 05:20:02;;;;;;;37.20;21.08;;;;;;;;;;5119050;28;20028;-78
2023/01/15 05:22:48;;;;;;;36.17;19.60;;;;;;;;;;5130669;28;20043;-78
2023/01/15 05:25:36;;;;;;;37.60;20.20;;;;;;;;;;5117334;28;20031;-79
2023/01/15 05:28:22;;;;;;;38.78;20.45;;;;;;;;;;5116755;28;20027;-77
2023/01/15 05:31:09;;;;;;;39.33;20.13;;;;;;;;;;5134951;28;20042;-76
2023/01/15 05:33:54;;;;;;;38.05;21.35;;;;;;;;;;5126302;28;20144;-80
2023/01/15 05:36:40;;;;;;;38.40;20.38;;;;;;;;;;5127012;28;20019;-77
2023/01/15 05:39:26;;;;;;;38.53;21.05;;;;;;;;;;5112146;28;20027;-77
2023/01/15 05:42:11;;;;;;;37.05;20.65;;;;;;;;;;5129758;28;20023;-77
2023/01/15 05:44:57;;;;;;;40.67;21.55;;;;;;;;;;5128989;28;20043;-78
2023/01/15 05:47:42;;;;;;;41.28;22.05;;;;;;;;;;5129737;28;20019;-77
2023/01/15 05:50:28;;;;;;;46.25;25.90;;;;;;;;;;5125269;28;20035;-78
2023/01/15 05:53:14;;;;;;;46.13;25.85;;;;;;;;;;5101627;28;20018;-78
2023/01/15 05:56:00;;;;;;;47.08;26.30;;;;;;;;;;5129321;28;20012;-77
2023/01/15 05:58:46;;;;;;;45.70;25.60;;;;;;;;;;5129556;28;20023;-79
2023/01/15 06:01:32;;;;;;;43.97;24.48;;;;;;;;;;5114921;28;20043;-77
2023/01/15 06:04:20;;;;;;;39.30;21.25;;;;;;;;;;5115607;28;20054;-77
2023/01/15 06:07:05;;;;;;;37.95;21.67;;;;;;;;;;5129072;28;20023;-78
2023/01/15 06:09:51;;;;;;;34.42;18.63;;;;;;;;;;5103822;28;20103;-78
2023/01/15 06:12:36;;;;;;;35.15;18.48;;;;;;;;;;5102240;28;20081;-77
2023/01/15 06:15:22;;;;;;;34.03;18.85;;;;;;;;;;5115733;28;20035;-78
2023/01/15 06:18:07;;;;;;;34.85;18.80;;;;;;;;;;5115602;28;20022;-79
2023/01/15 06:20:53;;;;;;;34.85;18.73;;;;;;;;;;5100986;28;20020;-79
2023/01/15 06:23:39;;;;;;;32.60;18.20;;;;;;;;;;5117117;28;20064;-78
2023/01/15 06:26:24;;;;;;;38.20;20.23;;;;;;;;;;5117602;28;20026;-78
2023/01/15 06:29:10;;;;;;;38.30;19.25;;;;;;;;;;5102976;28;20024;-78
2023/01/15 06:31:56;;;;;;;34.65;19.70;;;;;;;;;;5129602;28;20019;-77
2023/01/15 06:34:43;;;;;;;41.10;21.33;;;;;;;;;;5132101;28;20016;-78
2023/01/15 06:37:28;;;;;;;39.50;20.77;;;;;;;;;;5132389;28;20003;-77
2023/01/15 06:40:14;;;;;;;38.22;20.05;;;;;;;;;;5132864;28;20020;-78
2023/01/15 06:49:11;;;;;;;39.63;21.73;;;;;;;;;;5128241;28;20024;-73
2023/01/15 06:51:57;;;;;;;45.35;24.70;;;;;;;;;;5132276;28;20087;-78
2023/01/15 06:54:43;;;;;;;48.47;25.83;;;;;;;;;;5118629;28;20448;-77
2023/01/15 06:57:31;;;;;;;44.35;26.17;;;;;;;;;;5131427;28;20018;-77
2023/01/15 07:00:17;;;;;;;49.42;28.38;;;;;;;;;;5131084;28;20053;-77
2023/01/15 07:03:03;;;;;;;46.80;27.30;;;;;;;;;;5117810;28;20072;-77
2023/01/15 07:05:49;;;;;;;49.17;27.05;;;;;;;;;;5116021;28;20578;-77
2023/01/15 07:08:34;;;;;;;49.85;28.00;;;;;;;;;;5116093;28;20115;-79
2023/01/15 07:11:20;;;;;;;48.78;28.75;;;;;;;;;;5116140;28;20023;-77
2023/01/15 07:14:06;;;;;;;48.55;26.65;;;;;;;;;;5099726;28;20015;-77
2023/01/15 07:16:51;;;;;;;46.30;25.00;;;;;;;;;;5099883;28;20379;-77
2023/01/15 07:19:37;;;;;;;41.35;23.10;;;;;;;;;;5101230;28;20075;-77
2023/01/15 07:22:22;;;;;;;41.95;21.52;;;;;;;;;;5114318;28;20360;-77
2023/01/15 07:25:08;;;;;;;41.03;22.73;;;;;;;;;;5100796;28;20511;-79
2023/01/15 07:27:54;;;;;;;41.63;21.13;;;;;;;;;;5103064;28;20030;-78
2023/01/15 07:30:39;;;;;;;35.28;19.48;;;;;;;;;;5103087;28;20038;-77
2023/01/15 07:33:25;;;;;;;35.70;19.98;;;;;;;;;;5102822;28;20099;-78
2023/01/15 07:36:10;;;;;;;34.78;18.65;;;;;;;;;;5116016;28;20084;-77
2023/01/15 07:38:56;;;;;;;34.20;19.13;;;;;;;;;;5100156;28;20027;-78
2023/01/15 07:50:55;;;;;;;35.80;19.92;;;;;;;;;;5118022;28;20036;-78
2023/01/15 07:53:40;;;;;;;31.48;17.42;;;;;;;;;;5117436;28;20020;-77
2023/01/15 07:56:26;;;;;;;31.35;17.05;;;;;;;;;;5118301;28;20099;-77
2023/01/15 07:59:11;;;;;;;33.20;17.95;;;;;;;;;;5118003;28;20356;-79
2023/01/15 08:01:57;;;;;;;31.85;18.13;;;;;;;;;;5118107;28;20074;-77
2023/01/15 08:04:43;;;;;;;33.90;18.40;;;;;;;;;;5117606;28;20057;-77
2023/01/15 08:07:29;;;;;;;34.30;18.27;;;;;;;;;;5118647;28;20147;-78
2023/01/15 08:10:14;;;;;;;36.65;19.85;;;;;;;;;;5118074;28;20023;-78
2023/01/15 08:16:04;;;;;;;38.90;21.27;;;;;;;;;;5118600;28;20030;-78
2023/01/15 08:18:49;;;;;;;37.30;19.95;;;;;;;;;;5118825;28;20026;-80
2023/01/15 08:21:35;;;;;;;37.33;20.48;;;;;;;;;;5117386;28;20363;-79
2023/01/15 08:24:21;;;;;;;31.05;19.30;;;;;;;;;;5117915;28;20027;-78
2023/01/15 08:27:06;;;;;;;34.85;20.10;;;;;;;;;;5120813;28;20454;-78
2023/01/15 08:29:52;;;;;;;35.05;19.27;;;;;;;;;;5102804;28;20027;-78
2023/01/15 08:32:37;;;;;;;38.00;20.83;;;;;;;;;;5117390;28;20062;-78
2023/01/15 08:35:23;;;;;;;39.00;19.92;;;;;;;;;;5102238;28;20407;-78
2023/01/15 08:38:09;;;;;;;46.13;22.98;;;;;;;;;;5102059;28;20016;-78
2023/01/15 08:40:57;;;;;;;37.30;19.80;;;;;;;;;;5102340;28;20386;-78
2023/01/15 08:43:44;;;;;;;45.50;21.60;;;;;;;;;;5117697;28;20034;-78
2023/01/15 08:46:30;;;;;;;42.50;21.23;;;;;;;;;;5102122;28;20019;-79
2023/01/15 08:49:16;;;;;;;34.35;19.23;;;;;;;;;;5102158;28;20055;-78
2023/01/15 08:52:02;;;;;;;34.58;19.75;;;;;;;;;;5103510;28;20073;-78
2023/01/15 08:54:47;;;;;;;31.70;18.05;;;;;;;;;;5102943;28;20016;-78
2023/01/15 08:57:33;;;;;;;36.20;19.85;;;;;;;;;;5101515;28;20506;-78
2023/01/15 09:00:20;;;;;;;40.13;20.08;;;;;;;;;;5117150;28;20108;-78
2023/01/15 09:03:06;;;;;;;32.05;18.38;;;;;;;;;;5117618;28;20027;-78
2023/01/15 09:05:51;;;;;;;30.90;17.98;;;;;;;;;;5103318;28;20261;-78
2023/01/15 09:08:37;;;;;;;32.10;17.85;;;;;;;;;;5102762;28;20020;-78
2023/01/15 09:11:22;;;;;;;31.92;18.13;;;;;;;;;;5117241;28;20019;-80
2023/01/15 09:14:08;;;;;;;34.13;19.80;;;;;;;;;;5116398;28;20023;-79
2023/01/15 09:16:56;;;;;;;32.95;19.42;;;;;;;;;;5116521;28;20044;-77
2023/01/15 09:19:42;;;;;;;32.55;19.05;;;;;;;;;;5100922;28;20100;-78
2023/01/15 09:22:29;;;;;;;36.60;20.17;;;;;;;;;;5115853;28;20035;-78
2023/01/15 09:25:15;;;;;;;33.25;18.90;;;;;;;;;;5116659;28;20034;-78
2023/01/15 09:28:01;;;;;;;35.20;19.98;;;;;;;;;;5100649;28;20035;-78
2023/01/15 09:30:46;;;;;;;35.78;20.02;;;;;;;;;;5100562;28;20028;-78
2023/01/15 09:33:32;;;;;;;35.90;20.60;;;;;;;;;;5101688;28;20027;-79
2023/01/15 09:36:20;;;;;;;36.15;19.73;;;;;;;;;;5101551;28;20095;-78
2023/01/15 09:39:06;;;;;;;35.08;18.17;;;;;;;;;;5115394;28;20034;-78
2023/01/15 09:42:07;;;;;;;34.28;19.02;;;;;;;;;;5116585;28;20475;-79
2023/01/15 09:45:01;;;;;;;35.20;17.80;;;;;;;;;;5100603;28;20034;-79
2023/01/15 09:47:52;;;;;;;37.83;19.17;;;;;;;;;;5100275;28;20096;-79
2023/01/15 09:50:57;;;;;;;31.38;16.60;;;;;;;;;;5114484;28;20027;-78
2023/01/15 09:53:42;;;;;;;30.55;17.77;;;;;;;;;;5115568;28;20026;-78
2023/01/15 09:56:29;;;;;;;35.25;18.02;;;;;;;;;;5100247;28;20443;-79
2023/01/15 09:59:30;;;;;;;27.55;15.38;;;;;;;;;;5115047;28;20038;-78
2023/01/15 10:02:16;;;;;;;29.30;16.15;;;;;;;;;;5115581;28;20486;-76
2023/01/15 10:05:07;;;;;;;34.38;18.42;;;;;;;;;;5115963;28;20118;-78
2023/01/15 10:07:59;;;;;;;27.35;16.00;;;;;;;;;;5099091;28;20435;-78
2023/01/15 10:10:46;;;;;;;26.98;15.40;;;;;;;;;;5099791;28;20047;-78
2023/01/15 10:13:44;;;;;;;25.67;14.02;;;;;;;;;;5115963;28;20455;-78
2023/01/15 10:16:32;;;;;;;25.10;14.45;;;;;;;;;;5115522;28;20102;-77
2023/01/15 10:19:18;;;;;;;39.55;20.40;;;;;;;;;;5115054;28;20047;-78
2023/01/15 10:22:11;;;;;;;34.30;14.93;;;;;;;;;;5100106;28;20020;-79
2023/01/15 10:24:57;;;;;;;29.58;15.18;;;;;;;;;;5116110;28;20023;-79
2023/01/15 10:27:49;;;;;;;28.15;15.70;;;;;;;;;;5114888;28;20401;-79
2023/01/15 10:30:42;;;;;;;24.92;13.98;;;;;;;;;;5114904;28;20016;-79
2023/01/15 10:33:42;;;;;;;24.20;13.85;;;;;;;;;;5115567;28;20028;-75
2023/01/15 10:36:31;;;;;;;25.95;13.77;;;;;;;;;;5115001;28;20309;-78
2023/01/15 10:39:24;;;;;;;29.00;14.90;;;;;;;;;;5114625;28;20019;-79
2023/01/15 10:42:26;;;;;;;26.75;15.18;;;;;;;;;;5114937;28;20055;-79
2023/01/15 10:45:19;;;;;;;26.52;15.50;;;;;;;;;;5099396;28;20458;-78
2023/01/15 10:48:09;;;;;;;30.33;15.30;;;;;;;;;;5099716;28;20040;-78
2023/01/15 10:50:55;;;;;;;28.73;16.35;;;;;;;;;;5115196;28;20016;-78
2023/01/15 10:53:44;;;;;;;27.88;15.65;;;;;;;;;;5115398;28;20016;-78
2023/01/15 10:56:37;;;;;;;28.40;15.40;;;;;;;;;;5100980;28;20026;-79
2023/01/15 10:59:23;;;;;;;27.95;15.50;;;;;;;;;;5099468;28;20104;-79
2023/01/15 11:02:27;;;;;;;26.88;14.70;;;;;;;;;;5114421;28;20043;-79
2023/01/15 11:05:18;;;;;;;25.33;14.10;;;;;;;;;;5116015;28;20051;-79
2023/01/15 11:08:05;;;;;;;30.60;15.35;;;;;;;;;;5100695;28;20107;-78
2023/01/15 11:10:51;;;;;;;30.90;15.10;;;;;;;;;;5100250;28;20019;-78
2023/01/15 11:19:46;;;;;;;29.02;14.02;;;;;;;;;;5115435;28;20020;-78
2023/01/15 11:22:37;;;;;;;22.67;13.02;;;;;;;;;;5119586;28;20043;-78
2023/01/15 11:25:30;;;;;;;20.67;12.13;;;;;;;;;;5119321;28;20467;-78
2023/01/15 11:28:16;;;;;;;22.90;13.80;;;;;;;;;;5103505;28;20020;-78
2023/01/15 11:31:02;;;;;;;24.00;14.57;;;;;;;;;;5102634;28;20023;-78
2023/01/15 11:33:58;;;;;;;30.30;15.35;;;;;;;;;;5103555;28;20014;-78
2023/01/15 11:36:44;;;;;;;26.67;15.45;;;;;;;;;;5102918;28;20061;-79
2023/01/15 11:39:30;;;;;;;25.75;13.57;;;;;;;;;;5118341;28;20455;-78
2023/01/15 11:51:30;;;;;;;22.75;13.93;;;;;;;;;;5138491;28;20007;-76
2023/01/15 11:54:16;;;;;;;21.05;12.52;;;;;;;;;;5106711;28;20008;-77
2023/01/15 11:57:02;;;;;;;18.42;9.73;;;;;;;;;;5117869;28;20053;-78
2023/01/15 11:59:48;;;;;;;18.30;10.45;;;;;;;;;;5118585;28;20023;-77
2023/01/15 12:02:45;;;;;;;14.57;9.40;;;;;;;;;;5117032;28;20424;-78
2023/01/15 12:05:32;;;;;;;15.20;9.20;;;;;;;;;;5118259;28;20030;-77
2023/01/15 12:08:24;;;;;;;12.32;7.95;;;;;;;;;;5121160;28;20016;-78
2023/01/15 12:11:28;;;;;;;17.52;11.80;;;;;;;;;;5121196;28;20008;-76
2023/01/15 12:14:40;;;;;;;19.25;13.82;;;;;;;;;;5120106;28;20045;-79
2023/01/15 12:17:25;;;;;;;18.13;8.90;;;;;;;;;;5117687;28;20020;-78
2023/01/15 12:20:27;;;;;;;41.42;29.70;;;;;;;;;;5117726;28;20019;-79
2023/01/15 12:23:31;;;;;;;14.55;9.60;;;;;;;;;;5103391;28;20031;-78
2023/01/15 12:26:27;;;;;;;16.40;10.35;;;;;;;;;;5117364;28;20024;-78
2023/01/15 12:29:20;;;;;;;10.05;6.75;;;;;;;;;;5117031;28;20019;-79
2023/01/15 12:32:08;;;;;;;12.02;7.22;;;;;;;;;;5115710;28;20410;-78
2023/01/15 12:35:01;;;;;;;14.27;8.13;;;;;;;;;;5102513;28;20020;-78
2023/01/15 12:37:51;;;;;;;16.15;9.15;;;;;;;;;;5102743;28;20030;-77
2023/01/15 12:41:00;;;;;;;15.23;9.07;;;;;;;;;;5117543;28;20035;-78
2023/01/15 12:46:52;;;;;;;14.07;8.77;;;;;;;;;;5117408;28;20030;-77
2023/01/15 12:49:43;;;;;;;11.13;7.38;;;;;;;;;;5116429;28;20015;-77
2023/01/15 12:52:33;;;;;;;54.13;34.97;;;;;;;;;;5117064;28;20181;-78
2023/01/15 12:55:21;;;;;;;13.40;9.02;;;;;;;;;;5117601;28;20433;-77
2023/01/15 12:58:12;;;;;;;11.60;6.93;;;;;;;;;;5117838;28;20055;-77
2023/01/15 13:01:10;;;;;;;11.00;7.47;;;;;;;;;;5102379;28;20134;-78
2023/01/15 13:04:13;;;;;;;12.55;8.02;;;;;;;;;;5116934;28;20422;-77
2023/01/15 13:07:10;;;;;;;13.57;8.00;;;;;;;;;;5117808;28;20076;-76
2023/01/15 13:10:06;;;;;;;14.15;7.65;;;;;;;;;;5117445;28;20012;-78
2023/01/15 13:12:58;;;;;;;15.50;8.00;;;;;;;;;;5116114;28;20026;-76
2023/01/15 13:16:02;;;;;;;11.88;8.05;;;;;;;;;;5116523;28;20062;-76
2023/01/15 13:18:50;;;;;;;11.45;7.60;;;;;;;;;;5116007;28;20011;-77
2023/01/15 13:21:37;;;;;;;16.20;8.40;;;;;;;;;;5101811;28;20027;-78
2023/01/15 13:24:22;;;;;;;13.52;8.48;;;;;;;;;;5102095;28;20046;-79
2023/01/15 13:27:17;;;;;;;17.52;8.82;;;;;;;;;;5116488;28;20024;-77
2023/01/15 13:30:16;;;;;;;13.40;8.82;;;;;;;;;;5115282;28;20026;-80
2023/01/15 13:33:28;;;;;;;14.50;8.85;;;;;;;;;;5115969;28;20375;-79
2023/01/15 13:36:14;;;;;;;18.10;9.45;;;;;;;;;;5100589;28;20015;-77
2023/01/15 13:39:01;;;;;;;13.13;8.35;;;;;;;;;;5115238;28;20092;-77
2023/01/15 13:44:53;;;;;;;15.20;9.30;;;;;;;;;;5116583;28;20037;-77
2023/01/15 13:47:44;;;;;;;16.27;9.32;;;;;;;;;;5115620;28;20055;-77
2023/01/15 13:50:35;;;;;;;17.27;10.55;;;;;;;;;;5115472;28;20457;-77
2023/01/15 13:53:21;;;;;;;31.55;18.23;;;;;;;;;;5115239;28;20052;-77
2023/01/15 13:56:08;;;;;;;17.40;10.95;;;;;;;;;;5115762;28;20026;-78
2023/01/15 13:59:00;;;;;;;19.73;11.23;;;;;;;;;;5114726;28;20019;-76
2023/01/15 14:01:46;;;;;;;20.30;10.60;;;;;;;;;;5114563;28;20074;-78
2023/01/15 14:04:35;;;;;;;21.92;12.25;;;;;;;;;;5099897;28;20440;-78
2023/01/15 14:07:31;;;;;;;20.33;12.75;;;;;;;;;;5115444;28;20033;-78
2023/01/15 14:10:17;;;;;;;17.75;11.10;;;;;;;;;;5115860;28;20063;-78
2023/01/15 14:13:11;;;;;;;19.85;12.27;;;;;;;;;;5115109;28;20016;-78
2023/01/15 14:16:15;;;;;;;24.85;11.90;;;;;;;;;;5115476;28;20016;-75
2023/01/15 14:19:09;;;;;;;20.65;12.07;;;;;;;;;;5099651;28;20019;-76
2023/01/15 14:22:21;;;;;;;18.25;10.95;;;;;;;;;;5115016;28;20077;-77
2023/01/15 14:25:19;;;;;;;20.13;11.40;;;;;;;;;;5096231;28;20110;-78
2023/01/15 14:28:07;;;;;;;27.80;16.80;;;;;;;;;;5114914;28;20071;-77
2023/01/15 14:31:05;;;;;;;24.35;12.95;;;;;;;;;;5115274;28;20024;-77
2023/01/15 14:34:02;;;;;;;21.20;11.95;;;;;;;;;;5114665;28;20055;-77
2023/01/15 14:36:50;;;;;;;19.60;11.68;;;;;;;;;;5115334;28;20463;-77
2023/01/15 14:39:36;;;;;;;20.23;11.77;;;;;;;;;;5100618;28;20055;-77
2023/01/15 14:45:36;;;;;;;19.40;10.75;;;;;;;;;;5114950;28;20553;-77
2023/01/15 14:48:28;;;;;;;18.10;10.25;;;;;;;;;;5099776;28;20027;-78
2023/01/15 14:51:23;;;;;;;22.08;9.90;;;;;;;;;;5114393;28;20062;-72
2023/01/15 14:54:12;;;;;;;19.20;11.10;;;;;;;;;;5100630;28;20020;-77
2023/01/15 14:56:59;;;;;;;22.65;10.65;;;;;;;;;;5119129;28;20012;-72
2023/01/15 14:59:48;;;;;;;22.13;11.73;;;;;;;;;;5103181;28;20026;-76
2023/01/15 15:02:36;;;;;;;23.88;11.95;;;;;;;;;;5119326;28;20058;-76
2023/01/15 15:05:23;;;;;;;22.23;11.65;;;;;;;;;;5118155;28;20406;-79
2023/01/15 15:08:12;;;;;;;27.38;11.32;;;;;;;;;;5103011;28;20489;-78
2023/01/15 15:10:59;;;;;;;21.73;11.43;;;;;;;;;;5103429;28;20051;-76
2023/01/15 15:13:45;;;;;;;24.02;12.27;;;;;;;;;;5118608;28;20051;-75
2023/01/15 15:16:34;;;;;;;32.78;15.90;;;;;;;;;;5103707;28;20016;-75
2023/01/15 15:19:25;;;;;;;32.22;15.98;;;;;;;;;;5118417;28;20043;-74
2023/01/15 15:22:14;;;;;;;28.02;13.60;;;;;;;;;;5117851;28;20032;-74
2023/01/15 15:25:04;;;;;;;29.15;13.93;;;;;;;;;;5118362;28;20047;-75
2023/01/15 15:28:04;;;;;;;26.65;13.30;;;;;;;;;;5118127;28;20030;-74
2023/01/15 15:30:50;;;;;;;27.75;13.52;;;;;;;;;;5103835;28;20080;-75
2023/01/15 15:33:39;;;;;;;35.67;16.65;;;;;;;;;;5118715;28;20099;-74
2023/01/15 15:36:26;;;;;;;37.22;15.55;;;;;;;;;;5118848;28;20058;-74
2023/01/15 15:39:18;;;;;;;32.03;15.93;;;;;;;;;;5119226;28;20024;-74
2023/01/15 15:48:40;;;;;;;30.52;15.30;;;;;;;;;;5118009;28;20066;-75
2023/01/15 15:51:26;;;;;;;30.92;15.20;;;;;;;;;;5117965;28;20035;-75
2023/01/15 15:54:16;;;;;;;27.92;14.63;;;;;;;;;;5103406;28;20107;-76
2023/01/15 15:57:05;;;;;;;31.50;14.93;;;;;;;;;;5117818;28;20012;-74
2023/01/15 15:59:51;;;;;;;29.60;15.20;;;;;;;;;;5117219;28;20024;-75
2023/01/15 16:02:39;;;;;;;32.85;15.75;;;;;;;;;;5117419;28;20048;-77
2023/01/15 16:05:27;;;;;;;38.83;16.58;;;;;;;;;;5116406;28;20016;-74
2023/01/15 16:08:17;;;;;;;37.05;15.95;;;;;;;;;;5116068;28;20028;-75
2023/01/15 16:11:09;;;;;;;37.05;17.55;;;;;;;;;;5102385;28;20481;-76
2023/01/15 16:13:56;;;;;;;41.05;20.40;;;;;;;;;;5117031;28;20043;-75
2023/01/15 16:16:43;;;;;;;54.70;27.80;;;;;;;;;;5117768;28;20016;-76
2023/01/15 16:19:28;;;;;;;56.50;30.00;;;;;;;;;;5117258;28;20027;-78
2023/01/15 16:22:15;;;;;;;74.82;37.95;;;;;;;;;;5116468;28;20039;-76
2023/01/15 16:25:01;;;;;;;71.95;38.38;;;;;;;;;;5102591;28;20057;-75
2023/01/15 16:27:47;;;;;;;80.38;42.97;;;;;;;;;;5117346;28;20047;-75
2023/01/15 16:30:32;;;;;;;83.47;43.20;;;;;;;;;;5116496;28;20062;-74
2023/01/15 16:33:18;;;;;;;66.60;34.45;;;;;;;;;;5116537;28;20023;-75
2023/01/15 16:36:05;;;;;;;52.35;29.98;;;;;;;;;;5117133;28;20011;-73
2023/01/15 16:38:50;;;;;;;57.90;28.23;;;;;;;;;;5115743;28;20450;-75
2023/01/15 16:41:38;;;;;;;52.03;27.20;;;;;;;;;;5115947;28;20028;-75
2023/01/15 16:44:28;;;;;;;58.20;28.17;;;;;;;;;;5115186;28;20033;-74
2023/01/15 16:47:32;;;;;;;55.47;28.92;;;;;;;;;;5116787;28;20093;-75
2023/01/15 16:50:21;;;;;;;57.17;29.70;;;;;;;;;;5100931;28;20023;-75
2023/01/15 16:53:27;;;;;;;67.35;33.42;;;;;;;;;;5117386;28;20103;-74
2023/01/15 16:56:25;;;;;;;67.25;33.47;;;;;;;;;;5102046;28;20401;-75
2023/01/15 16:59:14;;;;;;;56.08;29.85;;;;;;;;;;5116328;28;20034;-76
2023/01/15 17:02:05;;;;;;;57.05;29.55;;;;;;;;;;5116753;28;20108;-75
2023/01/15 17:04:51;;;;;;;61.85;30.80;;;;;;;;;;5115600;28;20115;-74
2023/01/15 17:07:37;;;;;;;61.42;30.08;;;;;;;;;;5115842;28;20360;-74
2023/01/15 17:10:27;;;;;;;56.90;28.48;;;;;;;;;;5115761;28;20114;-75
2023/01/15 17:13:17;;;;;;;53.90;29.10;;;;;;;;;;5115243;28;20499;-73
2023/01/15 17:16:04;;;;;;;56.33;30.88;;;;;;;;;;5115254;28;20508;-74
2023/01/15 17:18:50;;;;;;;59.70;29.80;;;;;;;;;;5100193;28;20024;-75
2023/01/15 17:21:36;;;;;;;54.47;27.80;;;;;;;;;;5115272;28;20452;-74
2023/01/15 17:24:22;;;;;;;53.28;28.30;;;;;;;;;;5115574;28;20431;-75